ilmateenistus.ee keskkonnaagentuur.ee
EETN Tallinna lennuväli
FTEO31 EETN 171700
TAF EETN 171700Z 1718/1818 07008KT CAVOK BECMG 1807/1809 06018G28KT=

METAR EETN 172020Z 07008KT CAVOK 24/15 Q1014 NOSIG=
Tallinna lennuväli
EEKA Kärdla lennuväli
METAR EEKA 171950Z NIL=
Kärdla lennuväli
EEKE Kuressaare lennuväli
FCEO32 EETN 171400 AAA
TAF AMD EEKE 171800Z 1715/1721 CNL=

METAR EEKE 171950Z AUTO 04005KT 9999NDV NSC 24/14 Q1011=
Kuressaare lennuväli
EEPU Pärnu lennuväli
METAR EEPU 171950Z NIL=
Pärnu lennuväli
EETU Tartu lennuväli
FCEO32 EETN 172000
TAF EETU 172000Z 1721/1803 05007KT CAVOK=

METAR EETU 172020Z 04005KT 010V070 CAVOK 22/14 Q1012=
Tartu lennuväli
EEEI Ämari lennuväli
METAR EEEI 172020Z AUTO 04006KT CAVOK 20/14 Q1013=
Ämari lennuväli